sensor_id;sensor_type;location;lat;lon;timestamp;P1;durP1;ratioP1;P2;durP2;ratioP2
14933;SDS011;7560;51.364;12.384;2023-05-29T00:04:51;8.25;;;5.15;;
14933;SDS011;7560;51.364;12.384;2023-05-29T00:09:53;9.18;;;5.63;;
14933;SDS011;7560;51.364;12.384;2023-05-29T00:14:54;8.15;;;5.35;;
14933;SDS011;7560;51.364;12.384;2023-05-29T00:19:56;6.25;;;4.60;;
14933;SDS011;7560;51.364;12.384;2023-05-29T00:24:59;10.13;;;5.40;;
14933;SDS011;7560;51.364;12.384;2023-05-29T00:30:02;8.35;;;5.25;;
14933;SDS011;7560;51.364;12.384;2023-05-29T00:35:04;7.88;;;5.00;;
14933;SDS011;7560;51.364;12.384;2023-05-29T00:40:07;7.78;;;5.38;;
14933;SDS011;7560;51.364;12.384;2023-05-29T00:45:09;5.93;;;4.28;;
14933;SDS011;7560;51.364;12.384;2023-05-29T00:50:12;9.55;;;4.65;;
14933;SDS011;7560;51.364;12.384;2023-05-29T00:55:15;5.90;;;4.18;;
14933;SDS011;7560;51.364;12.384;2023-05-29T01:00:18;7.40;;;3.65;;
14933;SDS011;7560;51.364;12.384;2023-05-29T01:05:21;7.20;;;3.58;;
14933;SDS011;7560;51.364;12.384;2023-05-29T01:10:23;4.90;;;3.28;;
14933;SDS011;7560;51.364;12.384;2023-05-29T01:15:41;4.78;;;3.53;;
14933;SDS011;7560;51.364;12.384;2023-05-29T01:21:03;5.22;;;3.30;;
14933;SDS011;7560;51.364;12.384;2023-05-29T01:31:19;5.68;;;3.55;;
14933;SDS011;7560;51.364;12.384;2023-05-29T01:36:24;4.30;;;3.17;;
14933;SDS011;7560;51.364;12.384;2023-05-29T01:41:26;6.07;;;3.70;;
14933;SDS011;7560;51.364;12.384;2023-05-29T01:46:30;5.32;;;3.47;;
14933;SDS011;7560;51.364;12.384;2023-05-29T01:51:31;5.13;;;3.30;;
14933;SDS011;7560;51.364;12.384;2023-05-29T01:56:33;6.00;;;3.50;;
14933;SDS011;7560;51.364;12.384;2023-05-29T02:01:38;6.97;;;3.65;;
14933;SDS011;7560;51.364;12.384;2023-05-29T02:06:41;6.18;;;3.50;;
14933;SDS011;7560;51.364;12.384;2023-05-29T02:11:42;5.95;;;3.78;;
14933;SDS011;7560;51.364;12.384;2023-05-29T02:16:46;5.95;;;3.65;;
14933;SDS011;7560;51.364;12.384;2023-05-29T02:21:50;6.30;;;3.53;;
14933;SDS011;7560;51.364;12.384;2023-05-29T02:26:51;8.07;;;3.90;;
14933;SDS011;7560;51.364;12.384;2023-05-29T02:31:54;5.85;;;3.80;;
14933;SDS011;7560;51.364;12.384;2023-05-29T02:36:56;5.95;;;3.63;;
14933;SDS011;7560;51.364;12.384;2023-05-29T02:41:57;7.03;;;3.83;;
14933;SDS011;7560;51.364;12.384;2023-05-29T02:46:59;5.80;;;3.65;;
14933;SDS011;7560;51.364;12.384;2023-05-29T02:52:01;5.60;;;3.80;;
14933;SDS011;7560;51.364;12.384;2023-05-29T02:57:03;6.15;;;3.67;;
14933;SDS011;7560;51.364;12.384;2023-05-29T03:02:06;5.70;;;3.70;;
14933;SDS011;7560;51.364;12.384;2023-05-29T03:07:07;5.93;;;4.18;;
14933;SDS011;7560;51.364;12.384;2023-05-29T03:12:10;7.60;;;4.13;;
14933;SDS011;7560;51.364;12.384;2023-05-29T03:17:13;6.38;;;3.95;;
14933;SDS011;7560;51.364;12.384;2023-05-29T03:22:14;6.18;;;4.13;;
14933;SDS011;7560;51.364;12.384;2023-05-29T03:27:16;6.32;;;4.07;;
14933;SDS011;7560;51.364;12.384;2023-05-29T03:32:18;8.32;;;3.95;;
14933;SDS011;7560;51.364;12.384;2023-05-29T03:37:20;8.13;;;4.15;;
14933;SDS011;7560;51.364;12.384;2023-05-29T03:42:21;7.57;;;4.05;;
14933;SDS011;7560;51.364;12.384;2023-05-29T03:47:23;5.82;;;3.90;;
14933;SDS011;7560;51.364;12.384;2023-05-29T03:52:25;7.60;;;4.38;;
14933;SDS011;7560;51.364;12.384;2023-05-29T03:57:27;8.75;;;4.13;;
14933;SDS011;7560;51.364;12.384;2023-05-29T04:02:29;8.82;;;4.63;;
14933;SDS011;7560;51.364;12.384;2023-05-29T04:07:31;6.97;;;4.13;;
14933;SDS011;7560;51.364;12.384;2023-05-29T04:12:33;7.60;;;4.28;;
14933;SDS011;7560;51.364;12.384;2023-05-29T04:17:36;8.05;;;4.53;;
14933;SDS011;7560;51.364;12.384;2023-05-29T04:22:37;6.13;;;4.35;;
14933;SDS011;7560;51.364;12.384;2023-05-29T04:27:39;7.15;;;4.78;;
14933;SDS011;7560;51.364;12.384;2023-05-29T04:32:41;7.82;;;4.57;;
14933;SDS011;7560;51.364;12.384;2023-05-29T04:37:44;6.60;;;4.18;;
14933;SDS011;7560;51.364;12.384;2023-05-29T04:42:47;7.00;;;4.20;;
14933;SDS011;7560;51.364;12.384;2023-05-29T04:47:49;9.85;;;4.82;;
14933;SDS011;7560;51.364;12.384;2023-05-29T04:52:50;8.23;;;4.50;;
14933;SDS011;7560;51.364;12.384;2023-05-29T04:57:52;8.95;;;5.03;;
14933;SDS011;7560;51.364;12.384;2023-05-29T05:02:55;8.20;;;4.30;;
14933;SDS011;7560;51.364;12.384;2023-05-29T05:07:57;8.20;;;4.25;;
14933;SDS011;7560;51.364;12.384;2023-05-29T05:12:59;7.80;;;4.18;;
14933;SDS011;7560;51.364;12.384;2023-05-29T05:18:03;10.98;;;5.07;;
14933;SDS011;7560;51.364;12.384;2023-05-29T05:23:05;8.90;;;4.38;;
14933;SDS011;7560;51.364;12.384;2023-05-29T05:28:08;10.93;;;5.00;;
14933;SDS011;7560;51.364;12.384;2023-05-29T05:33:11;8.60;;;4.95;;
14933;SDS011;7560;51.364;12.384;2023-05-29T05:38:13;11.23;;;4.75;;
14933;SDS011;7560;51.364;12.384;2023-05-29T05:43:14;9.70;;;4.45;;
14933;SDS011;7560;51.364;12.384;2023-05-29T05:48:16;8.80;;;4.32;;
14933;SDS011;7560;51.364;12.384;2023-05-29T05:53:18;8.75;;;4.30;;
14933;SDS011;7560;51.364;12.384;2023-05-29T05:58:20;7.47;;;4.63;;
14933;SDS011;7560;51.364;12.384;2023-05-29T06:03:21;8.55;;;4.07;;
14933;SDS011;7560;51.364;12.384;2023-05-29T06:08:23;8.63;;;4.60;;
14933;SDS011;7560;51.364;12.384;2023-05-29T06:13:25;9.52;;;4.40;;
14933;SDS011;7560;51.364;12.384;2023-05-29T06:18:27;8.77;;;4.75;;
14933;SDS011;7560;51.364;12.384;2023-05-29T06:23:29;8.85;;;4.68;;
14933;SDS011;7560;51.364;12.384;2023-05-29T06:28:31;10.05;;;4.70;;
14933;SDS011;7560;51.364;12.384;2023-05-29T06:33:33;7.93;;;4.50;;
14933;SDS011;7560;51.364;12.384;2023-05-29T06:38:35;10.68;;;4.55;;
14933;SDS011;7560;51.364;12.384;2023-05-29T06:43:36;11.05;;;4.72;;
14933;SDS011;7560;51.364;12.384;2023-05-29T06:48:38;8.02;;;3.97;;
14933;SDS011;7560;51.364;12.384;2023-05-29T06:53:40;9.18;;;4.05;;
14933;SDS011;7560;51.364;12.384;2023-05-29T06:58:42;7.95;;;4.47;;
14933;SDS011;7560;51.364;12.384;2023-05-29T07:03:46;8.77;;;4.18;;
14933;SDS011;7560;51.364;12.384;2023-05-29T07:08:52;8.10;;;4.18;;
14933;SDS011;7560;51.364;12.384;2023-05-29T07:13:54;9.15;;;4.63;;
14933;SDS011;7560;51.364;12.384;2023-05-29T07:18:56;9.68;;;4.35;;
14933;SDS011;7560;51.364;12.384;2023-05-29T07:23:59;7.00;;;4.25;;
14933;SDS011;7560;51.364;12.384;2023-05-29T07:29:00;7.75;;;3.60;;
14933;SDS011;7560;51.364;12.384;2023-05-29T07:34:05;8.80;;;3.70;;
14933;SDS011;7560;51.364;12.384;2023-05-29T07:39:07;7.20;;;4.07;;
14933;SDS011;7560;51.364;12.384;2023-05-29T07:44:09;7.63;;;3.78;;
14933;SDS011;7560;51.364;12.384;2023-05-29T07:49:11;6.90;;;3.33;;
14933;SDS011;7560;51.364;12.384;2023-05-29T07:54:12;10.95;;;3.97;;
14933;SDS011;7560;51.364;12.384;2023-05-29T07:59:14;5.05;;;3.70;;
14933;SDS011;7560;51.364;12.384;2023-05-29T08:04:16;8.07;;;3.88;;
14933;SDS011;7560;51.364;12.384;2023-05-29T08:09:18;7.40;;;3.85;;
14933;SDS011;7560;51.364;12.384;2023-05-29T08:14:20;10.77;;;5.50;;
14933;SDS011;7560;51.364;12.384;2023-05-29T08:19:22;6.63;;;3.60;;
14933;SDS011;7560;51.364;12.384;2023-05-29T08:24:24;7.30;;;3.17;;
14933;SDS011;7560;51.364;12.384;2023-05-29T08:29:26;8.25;;;3.47;;
14933;SDS011;7560;51.364;12.384;2023-05-29T08:34:28;7.50;;;3.35;;
14933;SDS011;7560;51.364;12.384;2023-05-29T08:39:30;6.22;;;3.15;;
14933;SDS011;7560;51.364;12.384;2023-05-29T08:44:31;6.72;;;3.33;;
14933;SDS011;7560;51.364;12.384;2023-05-29T08:49:41;5.38;;;3.30;;
14933;SDS011;7560;51.364;12.384;2023-05-29T08:54:50;4.65;;;3.15;;
14933;SDS011;7560;51.364;12.384;2023-05-29T08:59:53;6.82;;;3.17;;
14933;SDS011;7560;51.364;12.384;2023-05-29T09:04:57;6.43;;;3.30;;
14933;SDS011;7560;51.364;12.384;2023-05-29T09:09:59;6.63;;;3.10;;
14933;SDS011;7560;51.364;12.384;2023-05-29T09:15:01;5.18;;;3.22;;
14933;SDS011;7560;51.364;12.384;2023-05-29T09:20:06;7.75;;;3.22;;
14933;SDS011;7560;51.364;12.384;2023-05-29T09:25:17;7.22;;;3.22;;
14933;SDS011;7560;51.364;12.384;2023-05-29T09:35:37;5.07;;;2.90;;
14933;SDS011;7560;51.364;12.384;2023-05-29T09:40:43;7.70;;;2.88;;
14933;SDS011;7560;51.364;12.384;2023-05-29T09:45:47;5.95;;;3.00;;
14933;SDS011;7560;51.364;12.384;2023-05-29T09:50:50;5.72;;;2.92;;
14933;SDS011;7560;51.364;12.384;2023-05-29T09:55:52;7.65;;;3.38;;
14933;SDS011;7560;51.364;12.384;2023-05-29T10:00:56;3.50;;;2.58;;
14933;SDS011;7560;51.364;12.384;2023-05-29T10:05:59;6.72;;;3.05;;
14933;SDS011;7560;51.364;12.384;2023-05-29T10:11:01;7.90;;;3.03;;
14933;SDS011;7560;51.364;12.384;2023-05-29T10:16:10;7.57;;;3.10;;
14933;SDS011;7560;51.364;12.384;2023-05-29T10:21:16;5.75;;;3.00;;
14933;SDS011;7560;51.364;12.384;2023-05-29T10:26:21;4.53;;;2.70;;
14933;SDS011;7560;51.364;12.384;2023-05-29T10:31:29;6.97;;;3.00;;
14933;SDS011;7560;51.364;12.384;2023-05-29T10:36:42;4.28;;;2.40;;
14933;SDS011;7560;51.364;12.384;2023-05-29T10:41:48;7.30;;;3.10;;
14933;SDS011;7560;51.364;12.384;2023-05-29T10:51:53;5.00;;;3.00;;
14933;SDS011;7560;51.364;12.384;2023-05-29T10:56:55;3.50;;;2.60;;
14933;SDS011;7560;51.364;12.384;2023-05-29T11:01:58;4.15;;;2.53;;
14933;SDS011;7560;51.364;12.384;2023-05-29T11:07:01;5.07;;;2.92;;
14933;SDS011;7560;51.364;12.384;2023-05-29T11:12:14;5.13;;;3.00;;
14933;SDS011;7560;51.364;12.384;2023-05-29T11:27:59;6.13;;;2.95;;
14933;SDS011;7560;51.364;12.384;2023-05-29T11:33:01;4.63;;;2.80;;
14933;SDS011;7560;51.364;12.384;2023-05-29T11:38:06;4.13;;;2.67;;
14933;SDS011;7560;51.364;12.384;2023-05-29T11:43:08;6.63;;;3.40;;
14933;SDS011;7560;51.364;12.384;2023-05-29T11:48:13;4.72;;;2.72;;
14933;SDS011;7560;51.364;12.384;2023-05-29T11:53:16;4.82;;;3.20;;
14933;SDS011;7560;51.364;12.384;2023-05-29T11:58:18;3.53;;;2.80;;
14933;SDS011;7560;51.364;12.384;2023-05-29T12:03:21;4.93;;;3.00;;
14933;SDS011;7560;51.364;12.384;2023-05-29T12:08:24;4.78;;;3.00;;
14933;SDS011;7560;51.364;12.384;2023-05-29T12:13:26;6.45;;;3.05;;
14933;SDS011;7560;51.364;12.384;2023-05-29T12:18:29;4.50;;;2.83;;
14933;SDS011;7560;51.364;12.384;2023-05-29T12:23:31;4.03;;;3.13;;
14933;SDS011;7560;51.364;12.384;2023-05-29T12:28:33;4.55;;;2.90;;
14933;SDS011;7560;51.364;12.384;2023-05-29T12:33:35;3.22;;;2.88;;
14933;SDS011;7560;51.364;12.384;2023-05-29T12:38:47;3.35;;;2.78;;
14933;SDS011;7560;51.364;12.384;2023-05-29T12:43:56;4.50;;;2.97;;
14933;SDS011;7560;51.364;12.384;2023-05-29T12:48:58;3.67;;;3.05;;
14933;SDS011;7560;51.364;12.384;2023-05-29T12:54:15;3.55;;;2.83;;
14933;SDS011;7560;51.364;12.384;2023-05-29T12:59:18;4.75;;;3.00;;
14933;SDS011;7560;51.364;12.384;2023-05-29T13:04:19;4.63;;;3.00;;
14933;SDS011;7560;51.364;12.384;2023-05-29T13:09:21;4.85;;;2.50;;
14933;SDS011;7560;51.364;12.384;2023-05-29T13:14:23;6.28;;;3.13;;
14933;SDS011;7560;51.364;12.384;2023-05-29T13:19:25;5.28;;;3.42;;
14933;SDS011;7560;51.364;12.384;2023-05-29T13:24:26;4.65;;;3.17;;
14933;SDS011;7560;51.364;12.384;2023-05-29T13:29:28;6.30;;;3.30;;
14933;SDS011;7560;51.364;12.384;2023-05-29T13:34:30;3.38;;;2.78;;
14933;SDS011;7560;51.364;12.384;2023-05-29T13:39:32;4.05;;;3.03;;
14933;SDS011;7560;51.364;12.384;2023-05-29T13:44:34;5.78;;;2.92;;
14933;SDS011;7560;51.364;12.384;2023-05-29T13:49:35;4.30;;;3.10;;
14933;SDS011;7560;51.364;12.384;2023-05-29T13:54:38;4.93;;;3.08;;
14933;SDS011;7560;51.364;12.384;2023-05-29T13:59:40;4.70;;;2.75;;
14933;SDS011;7560;51.364;12.384;2023-05-29T14:04:42;3.55;;;2.65;;
14933;SDS011;7560;51.364;12.384;2023-05-29T14:09:44;4.63;;;2.67;;
14933;SDS011;7560;51.364;12.384;2023-05-29T14:14:46;4.22;;;2.50;;
14933;SDS011;7560;51.364;12.384;2023-05-29T14:19:48;4.40;;;2.88;;
14933;SDS011;7560;51.364;12.384;2023-05-29T14:24:50;5.18;;;3.10;;
14933;SDS011;7560;51.364;12.384;2023-05-29T14:29:52;3.97;;;2.47;;
14933;SDS011;7560;51.364;12.384;2023-05-29T14:34:54;4.57;;;3.03;;
14933;SDS011;7560;51.364;12.384;2023-05-29T14:39:58;5.28;;;2.78;;
14933;SDS011;7560;51.364;12.384;2023-05-29T14:45:00;4.22;;;2.83;;
14933;SDS011;7560;51.364;12.384;2023-05-29T14:50:03;4.40;;;2.97;;
14933;SDS011;7560;51.364;12.384;2023-05-29T14:55:06;3.65;;;2.65;;
14933;SDS011;7560;51.364;12.384;2023-05-29T15:00:08;3.03;;;2.45;;
14933;SDS011;7560;51.364;12.384;2023-05-29T15:05:10;8.93;;;3.00;;
14933;SDS011;7560;51.364;12.384;2023-05-29T15:10:13;5.07;;;2.75;;
14933;SDS011;7560;51.364;12.384;2023-05-29T15:15:15;4.47;;;2.70;;
14933;SDS011;7560;51.364;12.384;2023-05-29T15:20:16;4.50;;;2.90;;
14933;SDS011;7560;51.364;12.384;2023-05-29T15:25:21;6.75;;;3.00;;
14933;SDS011;7560;51.364;12.384;2023-05-29T15:30:24;4.75;;;3.00;;
14933;SDS011;7560;51.364;12.384;2023-05-29T15:35:26;6.00;;;3.40;;
14933;SDS011;7560;51.364;12.384;2023-05-29T15:40:27;4.75;;;3.15;;
14933;SDS011;7560;51.364;12.384;2023-05-29T15:45:29;9.45;;;4.47;;
14933;SDS011;7560;51.364;12.384;2023-05-29T15:50:31;7.38;;;3.20;;
14933;SDS011;7560;51.364;12.384;2023-05-29T15:55:33;4.53;;;3.42;;
14933;SDS011;7560;51.364;12.384;2023-05-29T16:00:35;6.15;;;3.03;;
14933;SDS011;7560;51.364;12.384;2023-05-29T16:05:37;5.53;;;3.08;;
14933;SDS011;7560;51.364;12.384;2023-05-29T16:10:39;5.28;;;3.08;;
14933;SDS011;7560;51.364;12.384;2023-05-29T16:15:43;5.00;;;2.67;;
14933;SDS011;7560;51.364;12.384;2023-05-29T16:20:47;4.95;;;2.88;;
14933;SDS011;7560;51.364;12.384;2023-05-29T16:25:49;5.60;;;3.28;;
14933;SDS011;7560;51.364;12.384;2023-05-29T16:30:51;5.65;;;3.15;;
14933;SDS011;7560;51.364;12.384;2023-05-29T16:35:52;3.95;;;2.67;;
14933;SDS011;7560;51.364;12.384;2023-05-29T16:40:55;4.15;;;3.13;;
14933;SDS011;7560;51.364;12.384;2023-05-29T16:45:56;7.43;;;2.90;;
14933;SDS011;7560;51.364;12.384;2023-05-29T16:51:00;4.57;;;2.42;;
14933;SDS011;7560;51.364;12.384;2023-05-29T16:56:06;4.93;;;2.60;;
14933;SDS011;7560;51.364;12.384;2023-05-29T17:01:08;3.95;;;2.65;;
14933;SDS011;7560;51.364;12.384;2023-05-29T17:06:10;3.50;;;2.60;;
14933;SDS011;7560;51.364;12.384;2023-05-29T17:11:13;5.53;;;2.95;;
14933;SDS011;7560;51.364;12.384;2023-05-29T17:16:14;6.97;;;3.08;;
14933;SDS011;7560;51.364;12.384;2023-05-29T17:21:16;5.63;;;3.03;;
14933;SDS011;7560;51.364;12.384;2023-05-29T17:26:18;6.50;;;3.00;;
14933;SDS011;7560;51.364;12.384;2023-05-29T17:31:20;9.27;;;4.25;;
14933;SDS011;7560;51.364;12.384;2023-05-29T17:36:22;5.35;;;2.78;;
14933;SDS011;7560;51.364;12.384;2023-05-29T17:41:24;6.45;;;3.10;;
14933;SDS011;7560;51.364;12.384;2023-05-29T17:46:26;7.05;;;4.63;;
14933;SDS011;7560;51.364;12.384;2023-05-29T17:51:28;5.28;;;2.67;;
14933;SDS011;7560;51.364;12.384;2023-05-29T17:56:30;4.45;;;3.30;;
14933;SDS011;7560;51.364;12.384;2023-05-29T18:01:34;6.35;;;3.45;;
14933;SDS011;7560;51.364;12.384;2023-05-29T18:06:36;10.73;;;4.72;;
14933;SDS011;7560;51.364;12.384;2023-05-29T18:11:38;6.30;;;2.97;;
14933;SDS011;7560;51.364;12.384;2023-05-29T18:16:40;6.35;;;3.03;;
14933;SDS011;7560;51.364;12.384;2023-05-29T18:21:42;8.23;;;3.13;;
14933;SDS011;7560;51.364;12.384;2023-05-29T18:26:44;4.97;;;2.60;;
14933;SDS011;7560;51.364;12.384;2023-05-29T18:31:46;5.90;;;2.90;;
14933;SDS011;7560;51.364;12.384;2023-05-29T18:36:47;5.78;;;2.75;;
14933;SDS011;7560;51.364;12.384;2023-05-29T18:41:49;5.32;;;2.83;;
14933;SDS011;7560;51.364;12.384;2023-05-29T18:46:51;8.05;;;3.55;;
14933;SDS011;7560;51.364;12.384;2023-05-29T18:51:53;5.88;;;3.35;;
14933;SDS011;7560;51.364;12.384;2023-05-29T18:56:55;5.95;;;2.63;;
14933;SDS011;7560;51.364;12.384;2023-05-29T19:01:56;4.88;;;3.00;;
14933;SDS011;7560;51.364;12.384;2023-05-29T19:06:58;9.20;;;4.75;;
14933;SDS011;7560;51.364;12.384;2023-05-29T19:12:00;10.70;;;4.18;;
14933;SDS011;7560;51.364;12.384;2023-05-29T19:17:02;11.52;;;5.50;;
14933;SDS011;7560;51.364;12.384;2023-05-29T19:22:09;5.10;;;2.95;;
14933;SDS011;7560;51.364;12.384;2023-05-29T19:27:11;7.90;;;2.95;;
14933;SDS011;7560;51.364;12.384;2023-05-29T19:32:14;5.43;;;2.50;;
14933;SDS011;7560;51.364;12.384;2023-05-29T19:37:20;6.40;;;2.72;;
14933;SDS011;7560;51.364;12.384;2023-05-29T19:42:23;6.22;;;2.53;;
14933;SDS011;7560;51.364;12.384;2023-05-29T19:47:28;3.28;;;2.35;;
14933;SDS011;7560;51.364;12.384;2023-05-29T19:52:30;7.93;;;2.60;;
14933;SDS011;7560;51.364;12.384;2023-05-29T19:57:32;5.22;;;2.45;;
14933;SDS011;7560;51.364;12.384;2023-05-29T20:02:34;4.95;;;2.35;;
14933;SDS011;7560;51.364;12.384;2023-05-29T20:07:37;5.05;;;2.35;;
14933;SDS011;7560;51.364;12.384;2023-05-29T20:12:39;5.22;;;2.85;;
14933;SDS011;7560;51.364;12.384;2023-05-29T20:17:41;10.45;;;2.60;;
14933;SDS011;7560;51.364;12.384;2023-05-29T20:22:45;5.03;;;2.58;;
14933;SDS011;7560;51.364;12.384;2023-05-29T20:27:47;6.93;;;3.22;;
14933;SDS011;7560;51.364;12.384;2023-05-29T20:32:49;5.13;;;2.53;;
14933;SDS011;7560;51.364;12.384;2023-05-29T20:37:50;6.78;;;2.70;;
14933;SDS011;7560;51.364;12.384;2023-05-29T20:42:55;5.05;;;2.72;;
14933;SDS011;7560;51.364;12.384;2023-05-29T20:47:57;4.82;;;2.40;;
14933;SDS011;7560;51.364;12.384;2023-05-29T20:52:59;4.43;;;2.20;;
14933;SDS011;7560;51.364;12.384;2023-05-29T20:58:01;5.50;;;2.40;;
14933;SDS011;7560;51.364;12.384;2023-05-29T21:03:05;4.38;;;2.30;;
14933;SDS011;7560;51.364;12.384;2023-05-29T21:08:08;5.05;;;2.50;;
14933;SDS011;7560;51.364;12.384;2023-05-29T21:13:10;6.45;;;2.17;;
14933;SDS011;7560;51.364;12.384;2023-05-29T21:18:22;5.90;;;2.35;;
14933;SDS011;7560;51.364;12.384;2023-05-29T21:23:24;7.18;;;2.58;;
14933;SDS011;7560;51.364;12.384;2023-05-29T21:28:28;4.82;;;2.55;;
14933;SDS011;7560;51.364;12.384;2023-05-29T21:33:30;5.40;;;2.30;;
14933;SDS011;7560;51.364;12.384;2023-05-29T21:38:33;5.82;;;2.38;;
14933;SDS011;7560;51.364;12.384;2023-05-29T21:43:35;5.25;;;2.25;;
14933;SDS011;7560;51.364;12.384;2023-05-29T21:48:39;4.15;;;2.00;;
14933;SDS011;7560;51.364;12.384;2023-05-29T21:53:40;5.10;;;2.33;;
14933;SDS011;7560;51.364;12.384;2023-05-29T21:58:42;5.82;;;2.03;;
14933;SDS011;7560;51.364;12.384;2023-05-29T22:03:44;3.63;;;1.98;;
14933;SDS011;7560;51.364;12.384;2023-05-29T22:08:46;4.32;;;1.90;;
14933;SDS011;7560;51.364;12.384;2023-05-29T22:13:48;2.80;;;1.65;;
14933;SDS011;7560;51.364;12.384;2023-05-29T22:18:51;6.90;;;1.90;;
14933;SDS011;7560;51.364;12.384;2023-05-29T22:24:05;6.55;;;2.17;;
14933;SDS011;7560;51.364;12.384;2023-05-29T22:29:07;3.95;;;2.00;;
14933;SDS011;7560;51.364;12.384;2023-05-29T22:34:09;3.90;;;2.00;;
14933;SDS011;7560;51.364;12.384;2023-05-29T22:39:11;6.05;;;2.30;;
14933;SDS011;7560;51.364;12.384;2023-05-29T22:44:12;4.90;;;1.77;;
14933;SDS011;7560;51.364;12.384;2023-05-29T22:49:15;4.03;;;1.92;;
14933;SDS011;7560;51.364;12.384;2023-05-29T22:54:17;5.10;;;1.80;;
14933;SDS011;7560;51.364;12.384;2023-05-29T22:59:18;5.20;;;2.10;;
14933;SDS011;7560;51.364;12.384;2023-05-29T23:04:20;4.22;;;2.00;;
14933;SDS011;7560;51.364;12.384;2023-05-29T23:09:22;8.75;;;2.35;;
14933;SDS011;7560;51.364;12.384;2023-05-29T23:14:24;6.15;;;2.00;;
14933;SDS011;7560;51.364;12.384;2023-05-29T23:19:26;6.57;;;2.00;;
14933;SDS011;7560;51.364;12.384;2023-05-29T23:24:28;5.70;;;2.03;;
14933;SDS011;7560;51.364;12.384;2023-05-29T23:29:29;5.20;;;1.65;;
14933;SDS011;7560;51.364;12.384;2023-05-29T23:34:32;6.10;;;1.90;;
14933;SDS011;7560;51.364;12.384;2023-05-29T23:39:34;4.63;;;1.98;;
14933;SDS011;7560;51.364;12.384;2023-05-29T23:44:35;3.95;;;1.60;;
14933;SDS011;7560;51.364;12.384;2023-05-29T23:49:37;5.78;;;1.80;;
14933;SDS011;7560;51.364;12.384;2023-05-29T23:54:39;4.72;;;1.63;;
14933;SDS011;7560;51.364;12.384;2023-05-29T23:59:41;8.10;;;2.00;;
